KRST/RST METAR and TAF weather

Enter ICAO airport designator
Station Type Date Time Source
KRST METAR 2019/12/07 04:54 UTC NOAA

KRST 070454Z AUTO 19009KT 10SM OVC095 M06/M08 A3026 RMK AO2 SLP271 T10611083


Station Type Date Time Source
KRST Decoded METAR 2019/12/07 04:54 UTC NOAA

ROCHESTER INTERNATIONAL AIRPORT , MN, United States (KRST) 43-54N 092-30W 403M
Dec 06, 2019 - 11:54 PM EST / 2019.12.07 0454 UTC
Wind: from the S (190 degrees) at 10 MPH (9 KT):0
Visibility: 10 mile(s):0
Sky conditions: overcast
Temperature: 21.0 F (-6.1 C)
Windchill: 10 F (-12 C):1
Dew Point: 17.1 F (-8.3 C)
Relative Humidity: 84%
Pressure (altimeter): 30.26 in. Hg (1024 hPa)
ob: KRST 070454Z AUTO 19009KT 10SM OVC095 M06/M08 A3026 RMK AO2 SLP271 T10611083
cycle: 5

Station Type Date Time Source
KRST TAF 2019/12/06 18:24 UTC NOAA

TAF KRST 061721Z 0618/0718 30007KT P6SM SCT200
FM070200 18006KT P6SM BKN090
FM070900 20010KT P6SM BKN035
FM071400 20012KT P6SM FEW150

Example: see airport list